RJCC(METAR)
05/26 18:30
METAR RJCC 260930Z 35005KT 9999 FEW030 BKN/// 16/12 Q1006 RMK 1CU030
A2973=
戻る
トップページへ戻る
IMOC Co,.Ltd.